Time;durP1;ratioP1;P1;durP2;ratioP2;P2;SDS_P1;SDS_P2;PMS_P1;PMS_P2;Temp;Humidity;BMP_temperature;BMP_pressure;BME280_temperature;BME280_humidity;BME280_pressure;Samples;Min_cycle;Max_cycle;Signal;HPM_P1;HPM_P2
2022/03/20 00:00:39;;;;;;;24.23;21.40;;;;;;;;;;5048596;28;21015;-77
2022/03/20 00:03:07;;;;;;;24.50;21.90;;;;;;;;;;5048527;28;20489;-77
2022/03/20 00:05:38;;;;;;;23.80;21.30;;;;;;;;;;5048833;28;20897;-78
2022/03/20 00:08:08;;;;;;;24.40;21.47;;;;;;;;;;5048696;28;20944;-78
2022/03/20 00:10:35;;;;;;;26.40;22.10;;;;;;;;;;5050219;28;20492;-77
2022/03/20 00:13:03;;;;;;;23.30;20.93;;;;;;;;;;5048664;28;20469;-77
2022/03/20 00:15:30;;;;;;;24.30;21.80;;;;;;;;;;5049013;28;21032;-77
2022/03/20 00:17:58;;;;;;;23.70;20.60;;;;;;;;;;5048710;28;20437;-77
2022/03/20 00:20:25;;;;;;;28.03;22.10;;;;;;;;;;5048601;28;20763;-77
2022/03/20 00:22:53;;;;;;;27.60;22.30;;;;;;;;;;5049793;28;20998;-77
2022/03/20 00:25:20;;;;;;;23.27;20.90;;;;;;;;;;5052626;28;20532;-77
2022/03/20 00:27:47;;;;;;;25.60;20.20;;;;;;;;;;5053318;28;20495;-77
2022/03/20 00:30:14;;;;;;;25.23;21.80;;;;;;;;;;5052194;28;20465;-78
2022/03/20 00:32:42;;;;;;;23.27;20.87;;;;;;;;;;5052025;28;20530;-77
2022/03/20 00:35:10;;;;;;;23.40;20.80;;;;;;;;;;5052525;28;20464;-77
2022/03/20 00:37:37;;;;;;;23.07;20.67;;;;;;;;;;5052432;28;20801;-78
2022/03/20 00:40:05;;;;;;;23.77;21.33;;;;;;;;;;5051952;28;20523;-79
2022/03/20 00:42:32;;;;;;;23.10;20.63;;;;;;;;;;5052172;28;20465;-78
2022/03/20 00:44:59;;;;;;;24.23;21.63;;;;;;;;;;5052604;28;20568;-78
2022/03/20 00:47:26;;;;;;;23.77;20.57;;;;;;;;;;5052370;28;20536;-76
2022/03/20 00:49:53;;;;;;;25.83;21.60;;;;;;;;;;5052392;28;20499;-78
2022/03/20 00:52:21;;;;;;;26.60;21.70;;;;;;;;;;5052570;28;20878;-76
2022/03/20 00:54:48;;;;;;;24.20;21.47;;;;;;;;;;5052077;28;20446;-76
2022/03/20 00:57:15;;;;;;;23.60;21.10;;;;;;;;;;5052224;28;20453;-78
2022/03/20 00:59:43;;;;;;;25.30;21.30;;;;;;;;;;5052528;28;20951;-77
2022/03/20 01:02:10;;;;;;;23.50;21.07;;;;;;;;;;5052531;28;20449;-77
2022/03/20 01:04:37;;;;;;;23.00;19.67;;;;;;;;;;5051640;28;21051;-77
2022/03/20 01:07:05;;;;;;;21.83;19.73;;;;;;;;;;5053610;28;20464;-77
2022/03/20 01:09:33;;;;;;;23.63;21.23;;;;;;;;;;5064531;28;20462;-77
2022/03/20 01:12:00;;;;;;;23.37;20.87;;;;;;;;;;5071950;28;20453;-76
2022/03/20 01:14:27;;;;;;;22.20;19.83;;;;;;;;;;5070778;28;20608;-76
2022/03/20 01:16:55;;;;;;;23.63;21.13;;;;;;;;;;5071413;28;20434;-76
2022/03/20 01:19:23;;;;;;;23.50;21.10;;;;;;;;;;5069844;28;20473;-79
2022/03/20 01:21:50;;;;;;;22.90;20.47;;;;;;;;;;5059028;28;20464;-77
2022/03/20 01:24:17;;;;;;;23.10;20.70;;;;;;;;;;5051761;28;20489;-77
2022/03/20 01:26:46;;;;;;;25.03;22.17;;;;;;;;;;5051741;28;20445;-77
2022/03/20 01:29:13;;;;;;;22.47;20.10;;;;;;;;;;5051852;28;20454;-76
2022/03/20 01:31:40;;;;;;;25.37;20.80;;;;;;;;;;5051076;28;20447;-76
2022/03/20 01:34:08;;;;;;;21.83;18.80;;;;;;;;;;5050714;28;20469;-76
2022/03/20 01:36:35;;;;;;;25.50;20.37;;;;;;;;;;5051285;28;20533;-76
2022/03/20 01:39:02;;;;;;;23.43;21.03;;;;;;;;;;5051052;28;20457;-78
2022/03/20 01:41:29;;;;;;;23.07;20.67;;;;;;;;;;5051659;28;20499;-77
2022/03/20 01:43:59;;;;;;;24.70;21.47;;;;;;;;;;5051402;28;20551;-76
2022/03/20 01:46:26;;;;;;;24.00;21.50;;;;;;;;;;5052018;28;20454;-78
2022/03/20 01:48:53;;;;;;;26.43;21.60;;;;;;;;;;5052310;28;21032;-75
2022/03/20 01:52:10;;;;;;;23.10;20.70;;;;;;;;;;5053504;28;20855;-76
2022/03/20 01:54:11;;;;;;;23.13;20.77;;;;;;;;;;5050309;28;20469;-76
2022/03/20 01:56:39;;;;;;;23.53;20.27;;;;;;;;;;5050399;28;20449;-78
2022/03/20 01:59:08;;;;;;;24.03;21.40;;;;;;;;;;5050661;28;20511;-78
2022/03/20 02:01:35;;;;;;;24.07;21.50;;;;;;;;;;5050964;28;20793;-76
2022/03/20 02:04:02;;;;;;;22.40;20.10;;;;;;;;;;5051209;28;20485;-77
2022/03/20 02:06:29;;;;;;;23.17;20.50;;;;;;;;;;5051043;28;20441;-77
2022/03/20 02:08:56;;;;;;;22.50;20.10;;;;;;;;;;5052242;28;20818;-76
2022/03/20 02:11:25;;;;;;;22.70;20.27;;;;;;;;;;5051921;28;20469;-76
2022/03/20 02:13:53;;;;;;;23.50;20.47;;;;;;;;;;5051011;28;21046;-78
2022/03/20 02:16:21;;;;;;;23.83;21.33;;;;;;;;;;5050782;28;20473;-76
2022/03/20 02:18:50;;;;;;;24.90;22.20;;;;;;;;;;5051058;28;20441;-79
2022/03/20 02:21:36;;;;;;;23.23;20.43;;;;;;;;;;5050975;28;20453;-77
2022/03/20 02:24:03;;;;;;;22.57;20.00;;;;;;;;;;5050015;28;20576;-76
2022/03/20 02:26:30;;;;;;;23.90;21.33;;;;;;;;;;5049892;28;20537;-76
2022/03/20 02:28:58;;;;;;;22.90;20.40;;;;;;;;;;5049716;28;20442;-77
2022/03/20 02:31:25;;;;;;;22.47;20.07;;;;;;;;;;5049850;28;20449;-77
2022/03/20 02:33:52;;;;;;;22.03;19.60;;;;;;;;;;5049794;28;20540;-77
2022/03/20 02:36:20;;;;;;;23.30;20.70;;;;;;;;;;5050614;28;20457;-77
2022/03/20 02:38:48;;;;;;;23.90;21.40;;;;;;;;;;5049991;28;20963;-77
2022/03/20 02:41:16;;;;;;;22.33;19.93;;;;;;;;;;5050223;28;20557;-79
2022/03/20 02:43:49;;;;;;;24.97;20.97;;;;;;;;;;5049311;28;20497;-75
2022/03/20 02:46:16;;;;;;;23.13;20.77;;;;;;;;;;5049384;28;20985;-76
2022/03/20 02:48:45;;;;;;;22.57;20.27;;;;;;;;;;5049575;28;20450;-77
2022/03/20 02:51:12;;;;;;;24.33;21.70;;;;;;;;;;5049793;28;20453;-77
2022/03/20 02:53:40;;;;;;;23.63;20.23;;;;;;;;;;5049148;28;20471;-76
2022/03/20 02:56:07;;;;;;;22.90;20.50;;;;;;;;;;5049858;28;20472;-78
2022/03/20 02:58:34;;;;;;;24.00;21.50;;;;;;;;;;5049179;28;20446;-77
2022/03/20 03:01:01;;;;;;;22.70;20.30;;;;;;;;;;5050573;28;20454;-77
2022/03/20 03:03:28;;;;;;;26.90;21.03;;;;;;;;;;5049598;28;20461;-76
2022/03/20 03:05:58;;;;;;;25.00;21.20;;;;;;;;;;5049518;28;20554;-78
2022/03/20 03:11:11;;;;;;;23.73;21.23;;;;;;;;;;5050039;28;20441;-77
2022/03/20 03:13:39;;;;;;;24.37;21.37;;;;;;;;;;5050019;28;20466;-77
2022/03/20 03:16:07;;;;;;;29.53;22.23;;;;;;;;;;5051255;28;20858;-77
2022/03/20 03:18:35;;;;;;;24.60;22.03;;;;;;;;;;5051015;28;20453;-76
2022/03/20 03:21:02;;;;;;;25.20;22.60;;;;;;;;;;5050953;28;20464;-76
2022/03/20 03:23:29;;;;;;;24.53;21.63;;;;;;;;;;5050469;28;20481;-77
2022/03/20 03:25:57;;;;;;;25.67;21.97;;;;;;;;;;5050069;28;20532;-78
2022/03/20 03:28:33;;;;;;;24.50;21.40;;;;;;;;;;5049167;28;20445;-76
2022/03/20 03:31:00;;;;;;;22.97;20.67;;;;;;;;;;5049177;28;20548;-77
2022/03/20 03:33:28;;;;;;;23.37;20.93;;;;;;;;;;5048683;28;20538;-78
2022/03/20 03:35:54;;;;;;;23.57;21.17;;;;;;;;;;5048828;28;20437;-78
2022/03/20 03:38:22;;;;;;;23.77;21.20;;;;;;;;;;5049257;28;20493;-77
2022/03/20 03:40:50;;;;;;;23.87;20.90;;;;;;;;;;5049014;28;20831;-78
2022/03/20 03:43:18;;;;;;;24.43;21.37;;;;;;;;;;5048814;28;20473;-77
2022/03/20 03:45:47;;;;;;;24.07;21.53;;;;;;;;;;5048985;28;20477;-76
2022/03/20 03:48:16;;;;;;;25.13;22.03;;;;;;;;;;5048794;28;20446;-77
2022/03/20 03:50:45;;;;;;;24.50;21.80;;;;;;;;;;5048661;28;20545;-77
2022/03/20 03:53:12;;;;;;;25.20;22.00;;;;;;;;;;5048516;28;20461;-77
2022/03/20 03:55:43;;;;;;;24.17;21.60;;;;;;;;;;5049014;28;20483;-77
2022/03/20 03:58:11;;;;;;;26.23;22.50;;;;;;;;;;5050855;28;20557;-76
2022/03/20 04:00:39;;;;;;;27.67;24.20;;;;;;;;;;5053162;28;20898;-77
2022/03/20 04:03:07;;;;;;;26.63;23.77;;;;;;;;;;5051992;28;20457;-76
2022/03/20 04:05:34;;;;;;;29.50;23.03;;;;;;;;;;5052858;28;20504;-77
2022/03/20 04:08:01;;;;;;;26.37;23.50;;;;;;;;;;5052651;28;20537;-76
2022/03/20 04:10:29;;;;;;;26.73;23.70;;;;;;;;;;5052277;28;20802;-77
2022/03/20 04:12:56;;;;;;;24.97;20.77;;;;;;;;;;5052076;28;20465;-76
2022/03/20 04:15:24;;;;;;;25.50;22.33;;;;;;;;;;5052670;28;20495;-76
2022/03/20 04:17:52;;;;;;;24.73;22.27;;;;;;;;;;5052353;28;20452;-76
2022/03/20 04:20:21;;;;;;;25.50;22.60;;;;;;;;;;5052401;28;20920;-78
2022/03/20 04:25:29;;;;;;;25.63;22.87;;;;;;;;;;5052232;28;20474;-78
2022/03/20 04:27:57;;;;;;;27.40;23.73;;;;;;;;;;5052938;28;20945;-78
2022/03/20 04:30:25;;;;;;;25.07;22.37;;;;;;;;;;5053089;28;20968;-77
2022/03/20 04:32:53;;;;;;;31.03;22.60;;;;;;;;;;5052238;28;20547;-76
2022/03/20 04:35:23;;;;;;;24.10;21.37;;;;;;;;;;5053760;28;20437;-76
2022/03/20 04:37:50;;;;;;;24.63;22.03;;;;;;;;;;5052881;28;20449;-77
2022/03/20 04:40:17;;;;;;;26.77;22.43;;;;;;;;;;5051947;28;20961;-76
2022/03/20 04:42:44;;;;;;;28.60;23.10;;;;;;;;;;5051506;28;20461;-75
2022/03/20 04:45:12;;;;;;;25.83;22.50;;;;;;;;;;5052557;28;20484;-77
2022/03/20 04:58:48;;;;;;;26.50;21.97;;;;;;;;;;5051746;28;20413;-78
2022/03/20 05:01:15;;;;;;;28.23;23.10;;;;;;;;;;5051689;28;20811;-77
2022/03/20 05:03:42;;;;;;;24.87;22.23;;;;;;;;;;5051276;28;20479;-77
2022/03/20 05:06:10;;;;;;;31.07;23.27;;;;;;;;;;5052432;28;20551;-76
2022/03/20 05:08:37;;;;;;;26.57;22.30;;;;;;;;;;5051554;28;20475;-77
2022/03/20 05:13:49;;;;;;;26.37;23.43;;;;;;;;;;5052102;28;20448;-76
2022/03/20 05:16:17;;;;;;;29.60;23.70;;;;;;;;;;5052076;28;20853;-77
2022/03/20 05:18:44;;;;;;;28.53;24.43;;;;;;;;;;5051386;28;20449;-77
2022/03/20 05:21:12;;;;;;;27.70;24.53;;;;;;;;;;5051125;28;20452;-77
2022/03/20 05:23:40;;;;;;;26.87;23.90;;;;;;;;;;5051121;28;20592;-76
2022/03/20 05:26:07;;;;;;;28.43;24.03;;;;;;;;;;5050863;28;20576;-76
2022/03/20 05:28:34;;;;;;;28.43;25.07;;;;;;;;;;5050835;28;20457;-76
2022/03/20 05:31:01;;;;;;;30.93;25.57;;;;;;;;;;5050885;28;20453;-76
2022/03/20 05:33:29;;;;;;;28.07;23.63;;;;;;;;;;5050752;28;20473;-77
2022/03/20 05:35:56;;;;;;;29.10;24.60;;;;;;;;;;5051248;28;20949;-76
2022/03/20 05:38:25;;;;;;;28.33;24.50;;;;;;;;;;5050729;28;20507;-76
2022/03/20 05:41:43;;;;;;;28.03;24.50;;;;;;;;;;5051123;28;20484;-77
2022/03/20 05:43:39;;;;;;;28.00;24.07;;;;;;;;;;5050137;28;20935;-76
2022/03/20 05:46:06;;;;;;;28.10;24.10;;;;;;;;;;5050716;28;20481;-77
2022/03/20 05:48:35;;;;;;;27.87;24.60;;;;;;;;;;5051004;28;20523;-76
2022/03/20 05:51:02;;;;;;;30.77;24.97;;;;;;;;;;5050949;28;20548;-77
2022/03/20 05:53:31;;;;;;;27.90;24.50;;;;;;;;;;5050236;28;20466;-77
2022/03/20 05:58:42;;;;;;;27.40;24.50;;;;;;;;;;5051299;28;20552;-77
2022/03/20 06:01:10;;;;;;;27.33;24.37;;;;;;;;;;5051759;28;20862;-76
2022/03/20 06:03:37;;;;;;;26.97;24.10;;;;;;;;;;5053121;28;20476;-77
2022/03/20 06:06:07;;;;;;;28.63;25.50;;;;;;;;;;5052309;28;20468;-76
2022/03/20 06:08:36;;;;;;;29.50;25.03;;;;;;;;;;5052109;28;20445;-77
2022/03/20 06:11:03;;;;;;;29.13;25.10;;;;;;;;;;5052268;28;20492;-78
2022/03/20 06:13:31;;;;;;;28.03;24.17;;;;;;;;;;5051812;28;20812;-78
2022/03/20 06:15:58;;;;;;;28.47;25.30;;;;;;;;;;5052525;28;20442;-77
2022/03/20 06:18:25;;;;;;;30.17;24.97;;;;;;;;;;5050560;28;20813;-78
2022/03/20 06:20:53;;;;;;;27.37;23.90;;;;;;;;;;5050530;28;20655;-76
2022/03/20 06:23:20;;;;;;;28.10;25.10;;;;;;;;;;5050118;28;20448;-77
2022/03/20 06:25:51;;;;;;;28.70;24.47;;;;;;;;;;5049719;28;20485;-77
2022/03/20 06:28:18;;;;;;;30.27;24.63;;;;;;;;;;5050544;28;20942;-77
2022/03/20 06:30:45;;;;;;;29.17;25.10;;;;;;;;;;5050426;28;20529;-78
2022/03/20 06:33:12;;;;;;;29.77;25.67;;;;;;;;;;5049848;28;20477;-76
2022/03/20 06:35:40;;;;;;;30.60;24.90;;;;;;;;;;5050198;28;20447;-78
2022/03/20 06:38:07;;;;;;;29.90;25.83;;;;;;;;;;5050147;28;20446;-77
2022/03/20 06:40:35;;;;;;;29.10;26.03;;;;;;;;;;5050174;28;20564;-77
2022/03/20 06:43:03;;;;;;;30.17;26.90;;;;;;;;;;5049675;28;20473;-77
2022/03/20 06:45:30;;;;;;;30.60;25.50;;;;;;;;;;5049811;28;20482;-77
2022/03/20 06:47:57;;;;;;;28.00;25.10;;;;;;;;;;5049596;28;20789;-77
2022/03/20 06:50:24;;;;;;;27.90;24.90;;;;;;;;;;5049875;28;20834;-79
2022/03/20 06:52:51;;;;;;;27.97;24.97;;;;;;;;;;5049101;28;21009;-78
2022/03/20 06:55:18;;;;;;;29.77;24.97;;;;;;;;;;5049984;28;20467;-77
2022/03/20 06:57:46;;;;;;;28.47;24.50;;;;;;;;;;5049706;28;20452;-77
2022/03/20 07:00:16;;;;;;;32.23;27.50;;;;;;;;;;5049380;28;20446;-77
2022/03/20 07:02:43;;;;;;;31.10;26.97;;;;;;;;;;5049353;28;20593;-78
2022/03/20 07:05:11;;;;;;;28.80;24.60;;;;;;;;;;5049221;28;20476;-76
2022/03/20 07:07:40;;;;;;;28.47;25.43;;;;;;;;;;5049236;28;20442;-77
2022/03/20 07:10:08;;;;;;;32.30;26.57;;;;;;;;;;5049480;28;20820;-76
2022/03/20 07:12:35;;;;;;;31.47;25.63;;;;;;;;;;5048716;28;20519;-77
2022/03/20 07:15:02;;;;;;;30.90;25.57;;;;;;;;;;5049252;28;20499;-77
2022/03/20 07:17:31;;;;;;;33.03;27.37;;;;;;;;;;5049293;28;20445;-76
2022/03/20 07:19:59;;;;;;;30.07;25.90;;;;;;;;;;5049380;28;20450;-77
2022/03/20 07:22:26;;;;;;;30.03;26.20;;;;;;;;;;5049296;28;20558;-78
2022/03/20 07:24:53;;;;;;;34.00;27.60;;;;;;;;;;5049157;28;20452;-79
2022/03/20 07:30:07;;;;;;;29.83;26.60;;;;;;;;;;5049439;28;20436;-77
2022/03/20 07:32:36;;;;;;;29.93;26.57;;;;;;;;;;5050176;28;20968;-77
2022/03/20 07:35:03;;;;;;;32.53;27.37;;;;;;;;;;5053316;28;20443;-78
2022/03/20 07:37:30;;;;;;;30.57;26.97;;;;;;;;;;5053146;28;20847;-78
2022/03/20 07:40:02;;;;;;;31.90;28.50;;;;;;;;;;5054187;28;20500;-78
2022/03/20 07:42:29;;;;;;;31.60;27.43;;;;;;;;;;5053052;28;20446;-76
2022/03/20 07:44:56;;;;;;;33.53;27.17;;;;;;;;;;5054369;28;20445;-76
2022/03/20 07:47:24;;;;;;;30.33;27.10;;;;;;;;;;5052990;28;20481;-77
2022/03/20 07:49:53;;;;;;;30.20;27.00;;;;;;;;;;5053762;28;20448;-78
2022/03/20 07:52:20;;;;;;;30.57;27.13;;;;;;;;;;5053617;28;20460;-79
2022/03/20 07:54:47;;;;;;;29.50;26.40;;;;;;;;;;5054364;28;20528;-79
2022/03/20 07:57:15;;;;;;;31.53;27.07;;;;;;;;;;5054617;28;20944;-78
2022/03/20 07:59:44;;;;;;;29.87;26.00;;;;;;;;;;5053235;28;20445;-77
2022/03/20 08:02:11;;;;;;;30.47;27.17;;;;;;;;;;5053352;28;20576;-78
2022/03/20 08:04:39;;;;;;;31.13;27.37;;;;;;;;;;5053525;28;20447;-78
2022/03/20 08:07:08;;;;;;;30.67;27.27;;;;;;;;;;5053450;28;20518;-76
2022/03/20 08:09:35;;;;;;;29.87;26.67;;;;;;;;;;5053326;28;20448;-77
2022/03/20 08:12:02;;;;;;;31.00;27.67;;;;;;;;;;5054403;28;20448;-77
2022/03/20 08:14:29;;;;;;;32.63;29.17;;;;;;;;;;5053666;28;20540;-77
2022/03/20 08:16:56;;;;;;;33.53;29.10;;;;;;;;;;5053854;28;20441;-76
2022/03/20 08:19:24;;;;;;;29.80;26.60;;;;;;;;;;5053370;28;20540;-78
2022/03/20 08:21:51;;;;;;;30.30;27.20;;;;;;;;;;5054127;28;20457;-77
2022/03/20 08:24:20;;;;;;;29.60;26.40;;;;;;;;;;5052185;28;20462;-76
2022/03/20 08:26:47;;;;;;;31.97;28.47;;;;;;;;;;5052911;28;20481;-78
2022/03/20 08:29:14;;;;;;;30.77;27.67;;;;;;;;;;5054798;28;20445;-77
2022/03/20 08:31:44;;;;;;;33.03;27.50;;;;;;;;;;5052596;28;20515;-77
2022/03/20 08:34:11;;;;;;;32.40;28.90;;;;;;;;;;5051923;28;20465;-77
2022/03/20 08:36:39;;;;;;;31.33;27.57;;;;;;;;;;5053025;28;20491;-78
2022/03/20 08:39:06;;;;;;;31.43;27.67;;;;;;;;;;5052391;28;20492;-78
2022/03/20 08:41:35;;;;;;;30.83;27.50;;;;;;;;;;5052980;28;20452;-77
2022/03/20 08:44:02;;;;;;;32.23;27.60;;;;;;;;;;5053850;28;20576;-78
2022/03/20 08:46:29;;;;;;;30.10;26.83;;;;;;;;;;5054748;28;20476;-76
2022/03/20 08:48:57;;;;;;;33.23;28.57;;;;;;;;;;5055187;28;20461;-77
2022/03/20 08:51:24;;;;;;;30.47;27.07;;;;;;;;;;5053147;28;20478;-77
2022/03/20 08:53:51;;;;;;;30.87;27.67;;;;;;;;;;5052123;28;20469;-76
2022/03/20 08:56:18;;;;;;;28.93;26.07;;;;;;;;;;5052069;28;20941;-77
2022/03/20 08:58:48;;;;;;;31.03;27.97;;;;;;;;;;5052667;28;20858;-78
2022/03/20 09:01:17;;;;;;;29.63;26.43;;;;;;;;;;5054752;28;20527;-77
2022/03/20 09:03:45;;;;;;;32.17;28.87;;;;;;;;;;5051695;28;20472;-77
2022/03/20 09:06:12;;;;;;;30.43;27.30;;;;;;;;;;5052121;28;20842;-78
2022/03/20 09:08:40;;;;;;;29.87;26.87;;;;;;;;;;5052016;28;20445;-77
2022/03/20 09:11:07;;;;;;;29.90;27.00;;;;;;;;;;5052413;28;20449;-78
2022/03/20 09:13:34;;;;;;;33.20;27.80;;;;;;;;;;5052360;28;20552;-77
2022/03/20 09:19:04;;;;;;;30.47;27.37;;;;;;;;;;5055629;28;20425;-78
2022/03/20 09:21:32;;;;;;;30.90;27.53;;;;;;;;;;5055423;28;20540;-79
2022/03/20 09:23:59;;;;;;;29.80;26.70;;;;;;;;;;5054802;28;20453;-79
2022/03/20 09:26:26;;;;;;;30.00;26.70;;;;;;;;;;5055794;28;20481;-78
2022/03/20 09:28:54;;;;;;;28.77;25.77;;;;;;;;;;5055720;28;20453;-78
2022/03/20 09:31:22;;;;;;;30.00;26.87;;;;;;;;;;5051910;28;20450;-79
2022/03/20 09:33:49;;;;;;;31.80;28.40;;;;;;;;;;5051637;28;20596;-77
2022/03/20 09:36:17;;;;;;;29.97;26.77;;;;;;;;;;5051546;28;20445;-78
2022/03/20 09:38:44;;;;;;;30.93;27.67;;;;;;;;;;5051802;28;20457;-78
2022/03/20 09:41:11;;;;;;;30.90;27.90;;;;;;;;;;5051707;28;20430;-78
2022/03/20 09:43:39;;;;;;;29.60;26.50;;;;;;;;;;5052363;28;21049;-79
2022/03/20 09:46:07;;;;;;;30.83;26.73;;;;;;;;;;5052407;28;20481;-78
2022/03/20 09:48:36;;;;;;;28.37;25.60;;;;;;;;;;5052886;28;20454;-78
2022/03/20 09:51:04;;;;;;;27.23;24.53;;;;;;;;;;5051918;28;20449;-78
2022/03/20 09:53:31;;;;;;;28.50;25.60;;;;;;;;;;5050652;28;20473;-78
2022/03/20 09:55:59;;;;;;;28.13;25.30;;;;;;;;;;5050318;28;20448;-76
2022/03/20 09:58:26;;;;;;;27.83;25.03;;;;;;;;;;5050869;28;20449;-77
2022/03/20 10:00:53;;;;;;;29.83;26.80;;;;;;;;;;5050684;28;20438;-77
2022/03/20 10:03:22;;;;;;;28.53;25.83;;;;;;;;;;5050320;28;20454;-78
2022/03/20 10:06:04;;;;;;;27.20;24.60;;;;;;;;;;5050541;28;20450;-78
2022/03/20 10:08:33;;;;;;;29.90;26.90;;;;;;;;;;5051025;28;20433;-77
2022/03/20 10:11:12;;;;;;;27.93;24.87;;;;;;;;;;5050527;28;21044;-79
2022/03/20 10:13:39;;;;;;;28.87;25.97;;;;;;;;;;5050419;28;20462;-79
2022/03/20 10:16:17;;;;;;;28.33;25.63;;;;;;;;;;5050757;28;20445;-77
2022/03/20 10:18:44;;;;;;;29.00;26.30;;;;;;;;;;5050819;28;20819;-76
2022/03/20 10:21:12;;;;;;;27.60;24.73;;;;;;;;;;5050575;28;20433;-79
2022/03/20 10:23:41;;;;;;;26.97;24.13;;;;;;;;;;5050155;28;20461;-79
2022/03/20 10:26:09;;;;;;;23.10;20.70;;;;;;;;;;5050459;28;20453;-77
2022/03/20 10:28:37;;;;;;;23.97;19.50;;;;;;;;;;5050627;28;20511;-78
2022/03/20 10:31:05;;;;;;;21.60;19.37;;;;;;;;;;5050367;28;20957;-77
2022/03/20 10:33:33;;;;;;;21.30;19.10;;;;;;;;;;5049836;28;20949;-78
2022/03/20 10:36:09;;;;;;;23.57;18.20;;;;;;;;;;5049992;28;21023;-78
2022/03/20 10:38:37;;;;;;;20.80;18.80;;;;;;;;;;5050467;28;20510;-77
2022/03/20 10:41:16;;;;;;;22.63;20.33;;;;;;;;;;5049933;28;20480;-78
2022/03/20 10:43:43;;;;;;;20.97;18.83;;;;;;;;;;5050140;28;21004;-78
2022/03/20 10:46:12;;;;;;;21.77;19.40;;;;;;;;;;5049804;28;20448;-77
2022/03/20 10:48:40;;;;;;;20.30;18.20;;;;;;;;;;5049826;28;20723;-77
2022/03/20 10:51:07;;;;;;;20.37;18.37;;;;;;;;;;5050047;28;20635;-79
2022/03/20 10:53:34;;;;;;;21.10;19.10;;;;;;;;;;5050055;28;20896;-79
2022/03/20 10:56:06;;;;;;;20.77;18.60;;;;;;;;;;5053486;28;20824;-80
2022/03/20 10:58:37;;;;;;;21.47;19.37;;;;;;;;;;5053513;28;20453;-79
2022/03/20 11:01:05;;;;;;;23.13;20.63;;;;;;;;;;5050646;28;20422;-78
2022/03/20 11:03:36;;;;;;;21.13;19.10;;;;;;;;;;5050215;28;20474;-78
2022/03/20 11:06:10;;;;;;;21.83;19.70;;;;;;;;;;5051553;28;20965;-80
2022/03/20 11:08:38;;;;;;;21.90;19.70;;;;;;;;;;5052661;28;20446;-77
2022/03/20 11:11:06;;;;;;;23.70;21.13;;;;;;;;;;5053792;28;20449;-77
2022/03/20 11:13:46;;;;;;;20.37;18.50;;;;;;;;;;5054795;28;20469;-77
2022/03/20 11:16:18;;;;;;;21.23;18.77;;;;;;;;;;5053341;28;20484;-77
2022/03/20 11:18:46;;;;;;;23.73;19.37;;;;;;;;;;5052118;28;20442;-77
2022/03/20 11:21:13;;;;;;;20.40;18.40;;;;;;;;;;5051279;28;20443;-77
2022/03/20 11:23:40;;;;;;;21.97;18.67;;;;;;;;;;5049117;28;20457;-77
2022/03/20 11:26:08;;;;;;;21.37;18.90;;;;;;;;;;5049346;28;20450;-77
2022/03/20 11:28:42;;;;;;;20.10;18.10;;;;;;;;;;5049172;28;20484;-77
2022/03/20 11:31:11;;;;;;;21.50;19.40;;;;;;;;;;5049170;28;20460;-79
2022/03/20 11:33:38;;;;;;;22.73;19.03;;;;;;;;;;5048797;28;20535;-77
2022/03/20 11:36:06;;;;;;;20.33;18.20;;;;;;;;;;5049370;28;20454;-77
2022/03/20 11:38:35;;;;;;;20.50;17.87;;;;;;;;;;5049038;28;20827;-77
2022/03/20 11:41:07;;;;;;;21.00;18.53;;;;;;;;;;5049223;28;20928;-78
2022/03/20 11:43:34;;;;;;;19.17;17.17;;;;;;;;;;5048875;28;20465;-78
2022/03/20 11:46:27;;;;;;;21.50;19.20;;;;;;;;;;5048917;28;20453;-77
2022/03/20 11:49:13;;;;;;;21.53;17.80;;;;;;;;;;5049166;28;20495;-77
2022/03/20 11:51:53;;;;;;;22.30;18.40;;;;;;;;;;5049189;28;20460;-78
2022/03/20 11:54:20;;;;;;;20.53;18.40;;;;;;;;;;5049689;28;20454;-79
2022/03/20 11:56:48;;;;;;;23.67;18.63;;;;;;;;;;5049535;28;20746;-79
2022/03/20 11:59:30;;;;;;;25.17;19.07;;;;;;;;;;5049185;28;20450;-78
2022/03/20 12:02:06;;;;;;;19.07;16.97;;;;;;;;;;5049161;28;20447;-78
2022/03/20 12:04:42;;;;;;;18.50;16.70;;;;;;;;;;5048957;28;20867;-77
2022/03/20 12:07:14;;;;;;;20.27;16.70;;;;;;;;;;5049615;28;20530;-78
2022/03/20 12:09:50;;;;;;;18.70;15.80;;;;;;;;;;5049847;28;20488;-80
2022/03/20 12:12:28;;;;;;;21.40;17.03;;;;;;;;;;5049596;28;20445;-78
2022/03/20 12:14:56;;;;;;;19.20;17.30;;;;;;;;;;5048746;28;20464;-79
2022/03/20 12:17:24;;;;;;;18.40;16.50;;;;;;;;;;5049566;28;20449;-78
2022/03/20 12:19:53;;;;;;;16.90;15.13;;;;;;;;;;5052504;28;20536;-77
2022/03/20 12:22:29;;;;;;;16.70;15.00;;;;;;;;;;5052923;28;20461;-78
2022/03/20 12:24:58;;;;;;;17.50;15.53;;;;;;;;;;5052832;28;20449;-77
2022/03/20 12:27:45;;;;;;;18.33;15.50;;;;;;;;;;5052643;28;20504;-77
2022/03/20 12:30:31;;;;;;;17.53;15.80;;;;;;;;;;5052904;28;20755;-78
2022/03/20 12:33:01;;;;;;;18.97;16.00;;;;;;;;;;5052320;28;20469;-78
2022/03/20 12:35:28;;;;;;;17.03;15.33;;;;;;;;;;5052401;28;20543;-77
2022/03/20 12:37:56;;;;;;;17.90;15.43;;;;;;;;;;5052282;28;20528;-78
2022/03/20 12:40:25;;;;;;;17.53;15.67;;;;;;;;;;5052320;28;20450;-77
2022/03/20 12:42:59;;;;;;;16.63;14.97;;;;;;;;;;5052305;28;20465;-78
2022/03/20 12:45:27;;;;;;;20.43;14.80;;;;;;;;;;5052781;28;20451;-77
2022/03/20 12:47:56;;;;;;;16.50;14.80;;;;;;;;;;5052429;28;20480;-79
2022/03/20 12:50:25;;;;;;;17.07;14.93;;;;;;;;;;5052251;28;20913;-77
2022/03/20 12:52:54;;;;;;;22.93;15.67;;;;;;;;;;5052181;28;20476;-79
2022/03/20 12:55:26;;;;;;;16.47;14.97;;;;;;;;;;5052354;28;20445;-79
2022/03/20 12:57:53;;;;;;;16.53;14.87;;;;;;;;;;5052478;28;20511;-79
2022/03/20 13:00:21;;;;;;;15.73;14.20;;;;;;;;;;5052445;28;20503;-78
2022/03/20 13:03:03;;;;;;;18.20;15.20;;;;;;;;;;5052301;28;20976;-78
2022/03/20 13:05:32;;;;;;;15.20;13.60;;;;;;;;;;5051605;28;20450;-80
2022/03/20 13:07:59;;;;;;;15.87;14.20;;;;;;;;;;5051753;28;20511;-79
2022/03/20 13:10:26;;;;;;;16.10;14.40;;;;;;;;;;5051526;28;20441;-79
2022/03/20 13:12:54;;;;;;;15.40;14.00;;;;;;;;;;5051236;28;20875;-77
2022/03/20 13:15:22;;;;;;;14.47;13.00;;;;;;;;;;5051343;28;20454;-77
2022/03/20 13:17:49;;;;;;;14.13;12.70;;;;;;;;;;5051403;28;20855;-78
2022/03/20 13:20:17;;;;;;;13.43;12.13;;;;;;;;;;5051526;28;20990;-77
2022/03/20 13:22:46;;;;;;;14.00;12.50;;;;;;;;;;5051400;28;20505;-79
2022/03/20 13:25:17;;;;;;;19.20;17.27;;;;;;;;;;5055955;28;20450;-79
2022/03/20 13:27:46;;;;;;;17.33;15.73;;;;;;;;;;5054145;28;20572;-78
2022/03/20 13:30:14;;;;;;;16.80;15.30;;;;;;;;;;5050684;28;20446;-79
2022/03/20 13:32:43;;;;;;;19.53;17.63;;;;;;;;;;5051025;28;20549;-77
2022/03/20 13:35:10;;;;;;;17.30;15.30;;;;;;;;;;5051814;28;20481;-77
2022/03/20 13:37:37;;;;;;;17.90;16.20;;;;;;;;;;5051395;28;20489;-77
2022/03/20 13:40:07;;;;;;;15.87;14.30;;;;;;;;;;5051152;28;20808;-77
2022/03/20 13:42:36;;;;;;;15.33;13.80;;;;;;;;;;5051102;28;20469;-79
2022/03/20 13:45:03;;;;;;;15.37;13.70;;;;;;;;;;5051735;28;20454;-77
2022/03/20 13:47:30;;;;;;;16.33;14.33;;;;;;;;;;5050827;28;20487;-77
2022/03/20 13:49:59;;;;;;;14.90;13.27;;;;;;;;;;5050846;28;20472;-78
2022/03/20 13:52:32;;;;;;;13.80;12.50;;;;;;;;;;5051114;28;20469;-76
2022/03/20 13:55:04;;;;;;;14.80;13.50;;;;;;;;;;5050961;28;20530;-76
2022/03/20 13:57:33;;;;;;;16.47;13.60;;;;;;;;;;5051403;28;20441;-77
2022/03/20 14:00:06;;;;;;;14.37;13.07;;;;;;;;;;5051793;28;20483;-77
2022/03/20 14:02:39;;;;;;;15.90;14.50;;;;;;;;;;5053379;28;20473;-77
2022/03/20 14:05:10;;;;;;;15.37;13.90;;;;;;;;;;5052378;28;20529;-77
2022/03/20 14:07:37;;;;;;;15.03;13.57;;;;;;;;;;5051262;28;21128;-77
2022/03/20 14:10:16;;;;;;;14.87;13.30;;;;;;;;;;5050862;28;20445;-77
2022/03/20 14:12:45;;;;;;;16.67;14.03;;;;;;;;;;5050513;28;20885;-78
2022/03/20 14:15:12;;;;;;;14.13;12.83;;;;;;;;;;5050811;28;20453;-76
2022/03/20 14:17:40;;;;;;;15.47;12.20;;;;;;;;;;5050869;28;20769;-77
2022/03/20 14:20:09;;;;;;;12.60;11.30;;;;;;;;;;5050980;28;20456;-76
2022/03/20 14:22:43;;;;;;;37.80;34.47;;;;;;;;;;5050874;28;20540;-78
2022/03/20 14:25:12;;;;;;;26.30;23.73;;;;;;;;;;5051810;28;20781;-77
2022/03/20 14:27:40;;;;;;;20.20;18.30;;;;;;;;;;5050865;28;20846;-77
2022/03/20 14:41:26;;;;;;;19.40;16.87;;;;;;;;;;5049735;28;20421;-77
2022/03/20 14:44:08;;;;;;;19.10;17.30;;;;;;;;;;5050080;28;20833;-77
2022/03/20 14:46:37;;;;;;;20.67;18.67;;;;;;;;;;5047929;28;20552;-77
2022/03/20 14:49:04;;;;;;;19.80;17.90;;;;;;;;;;5049868;28;20473;-77
2022/03/20 14:51:31;;;;;;;20.17;18.27;;;;;;;;;;5049738;28;20572;-79
2022/03/20 14:53:59;;;;;;;20.80;18.63;;;;;;;;;;5049708;28;20493;-79
2022/03/20 14:56:26;;;;;;;20.27;18.20;;;;;;;;;;5050476;28;20453;-78
2022/03/20 14:58:54;;;;;;;19.90;18.10;;;;;;;;;;5050005;28;20869;-77
2022/03/20 15:01:22;;;;;;;22.03;19.97;;;;;;;;;;5049903;28;20802;-79
2022/03/20 15:03:50;;;;;;;21.27;19.07;;;;;;;;;;5049619;28;20469;-78